sensor_id;sensor_type;location;lat;lon;timestamp;temperature;humidity
16513;DHT22;8369;48.030;11.598;2023-04-03T00:01:14;3.20;99.90
16513;DHT22;8369;48.030;11.598;2023-04-03T00:03:40;3.20;99.90
16513;DHT22;8369;48.030;11.598;2023-04-03T00:06:10;3.20;99.90
16513;DHT22;8369;48.030;11.598;2023-04-03T00:08:37;3.20;99.90
16513;DHT22;8369;48.030;11.598;2023-04-03T00:11:06;3.20;99.90
16513;DHT22;8369;48.030;11.598;2023-04-03T00:13:32;3.20;99.90
16513;DHT22;8369;48.030;11.598;2023-04-03T00:15:58;3.20;99.90
16513;DHT22;8369;48.030;11.598;2023-04-03T00:18:24;3.30;99.90
16513;DHT22;8369;48.030;11.598;2023-04-03T00:20:50;3.30;99.90
16513;DHT22;8369;48.030;11.598;2023-04-03T00:23:16;3.30;99.90
16513;DHT22;8369;48.030;11.598;2023-04-03T00:25:42;3.20;99.90
16513;DHT22;8369;48.030;11.598;2023-04-03T00:28:08;3.30;99.90
16513;DHT22;8369;48.030;11.598;2023-04-03T00:30:34;3.30;99.90
16513;DHT22;8369;48.030;11.598;2023-04-03T00:33:02;3.30;99.90
16513;DHT22;8369;48.030;11.598;2023-04-03T00:35:28;3.30;99.90
16513;DHT22;8369;48.030;11.598;2023-04-03T00:37:55;3.30;99.90
16513;DHT22;8369;48.030;11.598;2023-04-03T00:40:23;3.30;99.90
16513;DHT22;8369;48.030;11.598;2023-04-03T00:42:52;3.30;99.90
16513;DHT22;8369;48.030;11.598;2023-04-03T00:45:25;3.30;99.90
16513;DHT22;8369;48.030;11.598;2023-04-03T00:47:53;3.30;99.90
16513;DHT22;8369;48.030;11.598;2023-04-03T00:50:19;3.30;99.90
16513;DHT22;8369;48.030;11.598;2023-04-03T00:52:45;3.40;99.90
16513;DHT22;8369;48.030;11.598;2023-04-03T00:55:14;3.30;99.90
16513;DHT22;8369;48.030;11.598;2023-04-03T00:57:41;3.30;99.90
16513;DHT22;8369;48.030;11.598;2023-04-03T01:00:10;3.30;99.90
16513;DHT22;8369;48.030;11.598;2023-04-03T01:02:37;3.30;99.90
16513;DHT22;8369;48.030;11.598;2023-04-03T01:05:04;3.30;99.90
16513;DHT22;8369;48.030;11.598;2023-04-03T01:07:31;3.30;99.90
16513;DHT22;8369;48.030;11.598;2023-04-03T01:10:01;3.30;99.90
16513;DHT22;8369;48.030;11.598;2023-04-03T01:12:53;3.30;99.90
16513;DHT22;8369;48.030;11.598;2023-04-03T01:15:22;3.30;99.90
16513;DHT22;8369;48.030;11.598;2023-04-03T01:17:57;3.30;99.90
16513;DHT22;8369;48.030;11.598;2023-04-03T01:23:27;3.30;99.90
16513;DHT22;8369;48.030;11.598;2023-04-03T01:25:59;3.30;99.90
16513;DHT22;8369;48.030;11.598;2023-04-03T01:28:31;3.30;99.90
16513;DHT22;8369;48.030;11.598;2023-04-03T01:31:40;3.30;99.90
16513;DHT22;8369;48.030;11.598;2023-04-03T01:34:07;3.30;99.90
16513;DHT22;8369;48.030;11.598;2023-04-03T01:36:32;3.30;99.90
16513;DHT22;8369;48.030;11.598;2023-04-03T01:38:59;3.30;99.90
16513;DHT22;8369;48.030;11.598;2023-04-03T01:41:25;3.30;99.90
16513;DHT22;8369;48.030;11.598;2023-04-03T01:43:51;3.30;99.90
16513;DHT22;8369;48.030;11.598;2023-04-03T01:46:18;3.30;99.90
16513;DHT22;8369;48.030;11.598;2023-04-03T01:48:44;3.30;99.90
16513;DHT22;8369;48.030;11.598;2023-04-03T01:51:10;3.30;99.90
16513;DHT22;8369;48.030;11.598;2023-04-03T01:53:36;3.30;99.90
16513;DHT22;8369;48.030;11.598;2023-04-03T01:56:03;3.30;99.90
16513;DHT22;8369;48.030;11.598;2023-04-03T01:58:29;3.30;99.90
16513;DHT22;8369;48.030;11.598;2023-04-03T02:00:55;3.30;99.90
16513;DHT22;8369;48.030;11.598;2023-04-03T02:03:21;3.30;99.90
16513;DHT22;8369;48.030;11.598;2023-04-03T02:05:47;3.30;99.90
16513;DHT22;8369;48.030;11.598;2023-04-03T02:08:13;3.30;99.90
16513;DHT22;8369;48.030;11.598;2023-04-03T02:10:39;3.20;99.90
16513;DHT22;8369;48.030;11.598;2023-04-03T02:13:05;3.30;99.90
16513;DHT22;8369;48.030;11.598;2023-04-03T02:15:31;3.30;99.90
16513;DHT22;8369;48.030;11.598;2023-04-03T02:17:56;3.30;99.90
16513;DHT22;8369;48.030;11.598;2023-04-03T02:20:22;3.30;99.90
16513;DHT22;8369;48.030;11.598;2023-04-03T02:22:48;3.20;99.90
16513;DHT22;8369;48.030;11.598;2023-04-03T02:25:14;3.20;99.90
16513;DHT22;8369;48.030;11.598;2023-04-03T02:27:41;3.20;99.90
16513;DHT22;8369;48.030;11.598;2023-04-03T02:30:07;3.30;99.90
16513;DHT22;8369;48.030;11.598;2023-04-03T02:32:34;3.30;99.90
16513;DHT22;8369;48.030;11.598;2023-04-03T02:35:00;3.20;99.90
16513;DHT22;8369;48.030;11.598;2023-04-03T02:37:26;3.20;99.90
16513;DHT22;8369;48.030;11.598;2023-04-03T02:39:52;3.20;99.90
16513;DHT22;8369;48.030;11.598;2023-04-03T02:42:18;3.30;99.90
16513;DHT22;8369;48.030;11.598;2023-04-03T02:44:43;3.30;99.90
16513;DHT22;8369;48.030;11.598;2023-04-03T02:47:10;3.30;99.90
16513;DHT22;8369;48.030;11.598;2023-04-03T02:49:36;3.30;99.90
16513;DHT22;8369;48.030;11.598;2023-04-03T02:52:02;3.30;99.90
16513;DHT22;8369;48.030;11.598;2023-04-03T02:54:28;3.30;99.90
16513;DHT22;8369;48.030;11.598;2023-04-03T02:56:57;3.40;99.90
16513;DHT22;8369;48.030;11.598;2023-04-03T02:59:23;3.40;99.90
16513;DHT22;8369;48.030;11.598;2023-04-03T03:01:49;3.40;99.90
16513;DHT22;8369;48.030;11.598;2023-04-03T03:04:15;3.40;99.90
16513;DHT22;8369;48.030;11.598;2023-04-03T03:06:41;3.40;99.90
16513;DHT22;8369;48.030;11.598;2023-04-03T03:09:08;3.40;99.90
16513;DHT22;8369;48.030;11.598;2023-04-03T03:11:34;3.40;99.90
16513;DHT22;8369;48.030;11.598;2023-04-03T03:14:16;3.40;99.90
16513;DHT22;8369;48.030;11.598;2023-04-03T03:16:41;3.40;99.90
16513;DHT22;8369;48.030;11.598;2023-04-03T03:19:07;3.40;99.90
16513;DHT22;8369;48.030;11.598;2023-04-03T03:21:33;3.40;99.90
16513;DHT22;8369;48.030;11.598;2023-04-03T03:23:59;3.40;99.90
16513;DHT22;8369;48.030;11.598;2023-04-03T03:26:25;3.40;99.90
16513;DHT22;8369;48.030;11.598;2023-04-03T03:28:51;3.40;99.90
16513;DHT22;8369;48.030;11.598;2023-04-03T03:31:17;3.40;99.90
16513;DHT22;8369;48.030;11.598;2023-04-03T03:33:44;3.40;99.90
16513;DHT22;8369;48.030;11.598;2023-04-03T03:36:10;3.30;99.90
16513;DHT22;8369;48.030;11.598;2023-04-03T03:38:36;3.30;99.90
16513;DHT22;8369;48.030;11.598;2023-04-03T03:41:02;3.40;99.90
16513;DHT22;8369;48.030;11.598;2023-04-03T03:43:29;3.40;99.90
16513;DHT22;8369;48.030;11.598;2023-04-03T03:45:56;3.40;99.90
16513;DHT22;8369;48.030;11.598;2023-04-03T03:48:22;3.40;99.90
16513;DHT22;8369;48.030;11.598;2023-04-03T03:50:49;3.40;99.90
16513;DHT22;8369;48.030;11.598;2023-04-03T03:53:15;3.40;99.90
16513;DHT22;8369;48.030;11.598;2023-04-03T03:55:41;3.40;99.90
16513;DHT22;8369;48.030;11.598;2023-04-03T03:58:07;3.40;99.90
16513;DHT22;8369;48.030;11.598;2023-04-03T04:00:33;3.40;99.90
16513;DHT22;8369;48.030;11.598;2023-04-03T04:02:59;3.40;99.90
16513;DHT22;8369;48.030;11.598;2023-04-03T04:05:26;3.40;99.90
16513;DHT22;8369;48.030;11.598;2023-04-03T04:07:52;3.40;99.90
16513;DHT22;8369;48.030;11.598;2023-04-03T04:10:18;3.40;99.90
16513;DHT22;8369;48.030;11.598;2023-04-03T04:12:44;3.40;99.90
16513;DHT22;8369;48.030;11.598;2023-04-03T04:15:10;3.40;99.90
16513;DHT22;8369;48.030;11.598;2023-04-03T04:17:36;3.40;99.90
16513;DHT22;8369;48.030;11.598;2023-04-03T04:20:03;3.40;99.90
16513;DHT22;8369;48.030;11.598;2023-04-03T04:22:30;3.40;99.90
16513;DHT22;8369;48.030;11.598;2023-04-03T04:24:56;3.40;99.90
16513;DHT22;8369;48.030;11.598;2023-04-03T04:27:38;3.40;99.90
16513;DHT22;8369;48.030;11.598;2023-04-03T04:30:04;3.40;99.90
16513;DHT22;8369;48.030;11.598;2023-04-03T04:32:30;3.40;99.90
16513;DHT22;8369;48.030;11.598;2023-04-03T04:34:56;3.30;99.90
16513;DHT22;8369;48.030;11.598;2023-04-03T04:37:25;3.30;99.90
16513;DHT22;8369;48.030;11.598;2023-04-03T04:39:50;3.30;99.90
16513;DHT22;8369;48.030;11.598;2023-04-03T04:42:16;3.30;99.90
16513;DHT22;8369;48.030;11.598;2023-04-03T04:44:42;3.30;99.90
16513;DHT22;8369;48.030;11.598;2023-04-03T04:47:08;3.30;99.90
16513;DHT22;8369;48.030;11.598;2023-04-03T04:49:34;3.20;99.90
16513;DHT22;8369;48.030;11.598;2023-04-03T04:51:59;3.20;99.90
16513;DHT22;8369;48.030;11.598;2023-04-03T04:54:25;3.20;99.90
16513;DHT22;8369;48.030;11.598;2023-04-03T04:57:03;3.20;99.90
16513;DHT22;8369;48.030;11.598;2023-04-03T04:59:41;3.20;99.90
16513;DHT22;8369;48.030;11.598;2023-04-03T05:02:07;3.30;99.90
16513;DHT22;8369;48.030;11.598;2023-04-03T05:04:33;3.30;99.90
16513;DHT22;8369;48.030;11.598;2023-04-03T05:06:59;3.30;99.90
16513;DHT22;8369;48.030;11.598;2023-04-03T05:09:25;3.30;99.90
16513;DHT22;8369;48.030;11.598;2023-04-03T05:11:51;3.30;99.90
16513;DHT22;8369;48.030;11.598;2023-04-03T05:14:17;3.30;99.90
16513;DHT22;8369;48.030;11.598;2023-04-03T05:16:43;3.30;99.90
16513;DHT22;8369;48.030;11.598;2023-04-03T05:19:09;3.20;99.90
16513;DHT22;8369;48.030;11.598;2023-04-03T05:21:35;3.20;99.90
16513;DHT22;8369;48.030;11.598;2023-04-03T05:24:01;3.20;99.90
16513;DHT22;8369;48.030;11.598;2023-04-03T05:26:32;3.20;99.90
16513;DHT22;8369;48.030;11.598;2023-04-03T05:28:58;3.20;99.90
16513;DHT22;8369;48.030;11.598;2023-04-03T05:31:24;3.20;99.90
16513;DHT22;8369;48.030;11.598;2023-04-03T05:33:56;3.20;99.90
16513;DHT22;8369;48.030;11.598;2023-04-03T05:36:22;3.20;99.90
16513;DHT22;8369;48.030;11.598;2023-04-03T05:38:48;3.20;99.90
16513;DHT22;8369;48.030;11.598;2023-04-03T05:41:14;3.20;99.90
16513;DHT22;8369;48.030;11.598;2023-04-03T05:43:41;3.20;99.90
16513;DHT22;8369;48.030;11.598;2023-04-03T05:46:11;3.20;99.90
16513;DHT22;8369;48.030;11.598;2023-04-03T05:48:39;3.20;99.90
16513;DHT22;8369;48.030;11.598;2023-04-03T05:51:06;3.30;99.90
16513;DHT22;8369;48.030;11.598;2023-04-03T05:53:35;3.30;99.90
16513;DHT22;8369;48.030;11.598;2023-04-03T05:56:03;3.30;99.90
16513;DHT22;8369;48.030;11.598;2023-04-03T05:58:29;3.30;99.90
16513;DHT22;8369;48.030;11.598;2023-04-03T06:00:56;3.30;99.90
16513;DHT22;8369;48.030;11.598;2023-04-03T06:03:23;3.30;99.90
16513;DHT22;8369;48.030;11.598;2023-04-03T06:05:49;3.40;99.90
16513;DHT22;8369;48.030;11.598;2023-04-03T06:08:14;3.40;99.90
16513;DHT22;8369;48.030;11.598;2023-04-03T06:10:40;3.40;99.90
16513;DHT22;8369;48.030;11.598;2023-04-03T06:13:06;3.40;99.90
16513;DHT22;8369;48.030;11.598;2023-04-03T06:15:33;3.40;99.90
16513;DHT22;8369;48.030;11.598;2023-04-03T06:18:02;3.40;99.90
16513;DHT22;8369;48.030;11.598;2023-04-03T06:20:28;3.40;99.90
16513;DHT22;8369;48.030;11.598;2023-04-03T06:22:53;3.40;99.90
16513;DHT22;8369;48.030;11.598;2023-04-03T06:25:19;3.40;99.90
16513;DHT22;8369;48.030;11.598;2023-04-03T06:27:46;3.30;99.90
16513;DHT22;8369;48.030;11.598;2023-04-03T06:30:13;3.40;99.90
16513;DHT22;8369;48.030;11.598;2023-04-03T06:32:41;3.40;99.90
16513;DHT22;8369;48.030;11.598;2023-04-03T06:35:07;3.40;99.90
16513;DHT22;8369;48.030;11.598;2023-04-03T06:37:34;3.40;99.90
16513;DHT22;8369;48.030;11.598;2023-04-03T06:40:01;3.50;99.90
16513;DHT22;8369;48.030;11.598;2023-04-03T06:42:28;3.50;99.90
16513;DHT22;8369;48.030;11.598;2023-04-03T06:44:54;3.40;99.90
16513;DHT22;8369;48.030;11.598;2023-04-03T06:47:21;3.50;99.90
16513;DHT22;8369;48.030;11.598;2023-04-03T06:49:47;3.50;99.90
16513;DHT22;8369;48.030;11.598;2023-04-03T06:52:13;3.50;99.90
16513;DHT22;8369;48.030;11.598;2023-04-03T06:54:40;3.60;99.90
16513;DHT22;8369;48.030;11.598;2023-04-03T06:57:07;3.60;99.90
16513;DHT22;8369;48.030;11.598;2023-04-03T06:59:33;3.60;99.90
16513;DHT22;8369;48.030;11.598;2023-04-03T07:02:00;3.60;99.90
16513;DHT22;8369;48.030;11.598;2023-04-03T07:04:26;3.60;99.90
16513;DHT22;8369;48.030;11.598;2023-04-03T07:06:52;3.60;99.90
16513;DHT22;8369;48.030;11.598;2023-04-03T07:09:21;3.60;99.90
16513;DHT22;8369;48.030;11.598;2023-04-03T07:11:47;3.60;99.90
16513;DHT22;8369;48.030;11.598;2023-04-03T07:14:13;3.50;99.90
16513;DHT22;8369;48.030;11.598;2023-04-03T07:16:39;3.60;99.90
16513;DHT22;8369;48.030;11.598;2023-04-03T07:19:05;3.60;99.90
16513;DHT22;8369;48.030;11.598;2023-04-03T07:21:31;3.60;99.90
16513;DHT22;8369;48.030;11.598;2023-04-03T07:23:57;3.60;99.90
16513;DHT22;8369;48.030;11.598;2023-04-03T07:26:23;3.70;99.90
16513;DHT22;8369;48.030;11.598;2023-04-03T07:28:49;3.70;99.90
16513;DHT22;8369;48.030;11.598;2023-04-03T07:31:16;3.80;99.90
16513;DHT22;8369;48.030;11.598;2023-04-03T07:33:43;3.80;99.90
16513;DHT22;8369;48.030;11.598;2023-04-03T07:36:18;3.80;99.90
16513;DHT22;8369;48.030;11.598;2023-04-03T07:38:44;3.80;99.90
16513;DHT22;8369;48.030;11.598;2023-04-03T07:41:15;3.80;99.90
16513;DHT22;8369;48.030;11.598;2023-04-03T07:43:43;3.80;99.90
16513;DHT22;8369;48.030;11.598;2023-04-03T07:46:10;3.80;99.90
16513;DHT22;8369;48.030;11.598;2023-04-03T07:48:36;3.80;99.90
16513;DHT22;8369;48.030;11.598;2023-04-03T07:51:03;3.80;99.90
16513;DHT22;8369;48.030;11.598;2023-04-03T07:53:29;3.80;99.90
16513;DHT22;8369;48.030;11.598;2023-04-03T07:55:59;3.80;99.90
16513;DHT22;8369;48.030;11.598;2023-04-03T07:58:25;3.80;99.90
16513;DHT22;8369;48.030;11.598;2023-04-03T08:00:52;3.90;99.90
16513;DHT22;8369;48.030;11.598;2023-04-03T08:03:18;3.90;99.90
16513;DHT22;8369;48.030;11.598;2023-04-03T08:05:46;3.80;99.90
16513;DHT22;8369;48.030;11.598;2023-04-03T08:08:14;3.80;99.90
16513;DHT22;8369;48.030;11.598;2023-04-03T08:10:41;3.80;99.90
16513;DHT22;8369;48.030;11.598;2023-04-03T08:13:08;3.80;99.90
16513;DHT22;8369;48.030;11.598;2023-04-03T08:15:34;3.80;99.90
16513;DHT22;8369;48.030;11.598;2023-04-03T08:18:00;3.80;99.90
16513;DHT22;8369;48.030;11.598;2023-04-03T08:20:26;3.80;99.90
16513;DHT22;8369;48.030;11.598;2023-04-03T08:22:52;3.90;99.90
16513;DHT22;8369;48.030;11.598;2023-04-03T08:25:18;3.90;99.90
16513;DHT22;8369;48.030;11.598;2023-04-03T08:27:44;3.90;99.90
16513;DHT22;8369;48.030;11.598;2023-04-03T08:30:10;3.90;99.90
16513;DHT22;8369;48.030;11.598;2023-04-03T08:32:36;3.90;99.90
16513;DHT22;8369;48.030;11.598;2023-04-03T08:35:03;3.90;99.90
16513;DHT22;8369;48.030;11.598;2023-04-03T08:37:30;3.90;99.90
16513;DHT22;8369;48.030;11.598;2023-04-03T08:40:16;4.00;99.90
16513;DHT22;8369;48.030;11.598;2023-04-03T08:43:26;4.00;99.90
16513;DHT22;8369;48.030;11.598;2023-04-03T08:45:59;4.00;99.90
16513;DHT22;8369;48.030;11.598;2023-04-03T08:48:34;4.00;99.90
16513;DHT22;8369;48.030;11.598;2023-04-03T08:51:08;4.10;99.90
16513;DHT22;8369;48.030;11.598;2023-04-03T08:53:40;4.00;99.90
16513;DHT22;8369;48.030;11.598;2023-04-03T08:56:09;4.10;99.90
16513;DHT22;8369;48.030;11.598;2023-04-03T08:58:50;4.10;99.90
16513;DHT22;8369;48.030;11.598;2023-04-03T09:04:43;4.10;99.90
16513;DHT22;8369;48.030;11.598;2023-04-03T09:07:15;4.10;99.90
16513;DHT22;8369;48.030;11.598;2023-04-03T09:09:43;4.00;99.90
16513;DHT22;8369;48.030;11.598;2023-04-03T09:12:27;4.00;99.90
16513;DHT22;8369;48.030;11.598;2023-04-03T09:15:13;4.00;99.90
16513;DHT22;8369;48.030;11.598;2023-04-03T09:17:43;4.00;99.90
16513;DHT22;8369;48.030;11.598;2023-04-03T09:20:38;4.00;99.90
16513;DHT22;8369;48.030;11.598;2023-04-03T09:26:02;4.10;99.90
16513;DHT22;8369;48.030;11.598;2023-04-03T09:28:33;4.10;99.90
16513;DHT22;8369;48.030;11.598;2023-04-03T09:31:00;4.20;99.90
16513;DHT22;8369;48.030;11.598;2023-04-03T09:33:28;4.20;99.90
16513;DHT22;8369;48.030;11.598;2023-04-03T09:35:55;4.30;99.90
16513;DHT22;8369;48.030;11.598;2023-04-03T09:38:22;4.30;99.90
16513;DHT22;8369;48.030;11.598;2023-04-03T09:41:15;4.40;99.90
16513;DHT22;8369;48.030;11.598;2023-04-03T09:43:52;4.50;99.90
16513;DHT22;8369;48.030;11.598;2023-04-03T09:46:36;4.50;99.90
16513;DHT22;8369;48.030;11.598;2023-04-03T09:49:05;4.50;99.90
16513;DHT22;8369;48.030;11.598;2023-04-03T09:51:31;4.60;99.90
16513;DHT22;8369;48.030;11.598;2023-04-03T09:53:57;4.70;99.90
16513;DHT22;8369;48.030;11.598;2023-04-03T09:56:27;4.80;99.90
16513;DHT22;8369;48.030;11.598;2023-04-03T10:01:33;4.90;99.90
16513;DHT22;8369;48.030;11.598;2023-04-03T10:04:19;4.90;99.90
16513;DHT22;8369;48.030;11.598;2023-04-03T10:06:53;4.90;99.90
16513;DHT22;8369;48.030;11.598;2023-04-03T10:09:29;4.90;99.90
16513;DHT22;8369;48.030;11.598;2023-04-03T10:12:03;4.80;99.90
16513;DHT22;8369;48.030;11.598;2023-04-03T10:23:02;4.50;99.90
16513;DHT22;8369;48.030;11.598;2023-04-03T10:34:38;4.40;99.90
16513;DHT22;8369;48.030;11.598;2023-04-03T10:37:20;4.50;99.90
16513;DHT22;8369;48.030;11.598;2023-04-03T10:40:32;4.60;99.90
16513;DHT22;8369;48.030;11.598;2023-04-03T10:46:10;4.70;99.90
16513;DHT22;8369;48.030;11.598;2023-04-03T10:48:40;4.90;99.90
16513;DHT22;8369;48.030;11.598;2023-04-03T10:51:29;5.00;99.90
16513;DHT22;8369;48.030;11.598;2023-04-03T10:54:00;5.10;99.90
16513;DHT22;8369;48.030;11.598;2023-04-03T10:59:18;5.10;99.90
16513;DHT22;8369;48.030;11.598;2023-04-03T11:01:54;5.10;99.90
16513;DHT22;8369;48.030;11.598;2023-04-03T11:04:23;5.10;99.90
16513;DHT22;8369;48.030;11.598;2023-04-03T11:07:02;5.10;99.90
16513;DHT22;8369;48.030;11.598;2023-04-03T11:09:33;5.00;99.90
16513;DHT22;8369;48.030;11.598;2023-04-03T11:14:41;4.60;99.90
16513;DHT22;8369;48.030;11.598;2023-04-03T11:22:51;4.20;99.90
16513;DHT22;8369;48.030;11.598;2023-04-03T11:25:21;4.10;99.90
16513;DHT22;8369;48.030;11.598;2023-04-03T11:30:40;3.90;99.90
16513;DHT22;8369;48.030;11.598;2023-04-03T11:39:26;3.70;99.90
16513;DHT22;8369;48.030;11.598;2023-04-03T11:42:24;3.70;99.90
16513;DHT22;8369;48.030;11.598;2023-04-03T11:51:02;3.70;99.90
16513;DHT22;8369;48.030;11.598;2023-04-03T11:53:48;3.70;99.90
16513;DHT22;8369;48.030;11.598;2023-04-03T11:59:21;3.80;99.90
16513;DHT22;8369;48.030;11.598;2023-04-03T12:01:51;3.80;99.90
16513;DHT22;8369;48.030;11.598;2023-04-03T12:04:21;3.80;99.90
16513;DHT22;8369;48.030;11.598;2023-04-03T12:12:37;3.80;99.90
16513;DHT22;8369;48.030;11.598;2023-04-03T12:17:48;3.80;99.90
16513;DHT22;8369;48.030;11.598;2023-04-03T12:23:34;3.90;99.90
16513;DHT22;8369;48.030;11.598;2023-04-03T12:26:19;3.90;99.90
16513;DHT22;8369;48.030;11.598;2023-04-03T12:28:48;3.90;99.90
16513;DHT22;8369;48.030;11.598;2023-04-03T12:31:15;4.00;99.90
16513;DHT22;8369;48.030;11.598;2023-04-03T12:39:17;4.10;99.90
16513;DHT22;8369;48.030;11.598;2023-04-03T12:42:02;4.20;99.90
16513;DHT22;8369;48.030;11.598;2023-04-03T12:47:34;4.30;99.90
16513;DHT22;8369;48.030;11.598;2023-04-03T12:50:16;4.30;99.90
16513;DHT22;8369;48.030;11.598;2023-04-03T12:53:04;4.30;99.90
16513;DHT22;8369;48.030;11.598;2023-04-03T12:55:31;4.30;99.90
16513;DHT22;8369;48.030;11.598;2023-04-03T12:58:13;4.40;99.90
16513;DHT22;8369;48.030;11.598;2023-04-03T13:00:40;4.40;99.90
16513;DHT22;8369;48.030;11.598;2023-04-03T13:03:20;4.40;99.90
16513;DHT22;8369;48.030;11.598;2023-04-03T13:05:47;4.40;99.90
16513;DHT22;8369;48.030;11.598;2023-04-03T13:08:14;4.40;99.90
16513;DHT22;8369;48.030;11.598;2023-04-03T13:11:08;4.40;99.90
16513;DHT22;8369;48.030;11.598;2023-04-03T13:13:38;4.50;99.90
16513;DHT22;8369;48.030;11.598;2023-04-03T13:16:10;4.50;99.90
16513;DHT22;8369;48.030;11.598;2023-04-03T13:18:37;4.60;99.90
16513;DHT22;8369;48.030;11.598;2023-04-03T13:21:15;4.80;99.90
16513;DHT22;8369;48.030;11.598;2023-04-03T13:23:46;4.80;99.90
16513;DHT22;8369;48.030;11.598;2023-04-03T13:26:16;4.90;99.90
16513;DHT22;8369;48.030;11.598;2023-04-03T13:28:46;5.00;99.90
16513;DHT22;8369;48.030;11.598;2023-04-03T13:33:52;5.20;99.90
16513;DHT22;8369;48.030;11.598;2023-04-03T13:36:29;5.30;99.90
16513;DHT22;8369;48.030;11.598;2023-04-03T13:41:42;5.40;99.90
16513;DHT22;8369;48.030;11.598;2023-04-03T13:44:27;5.40;99.90
16513;DHT22;8369;48.030;11.598;2023-04-03T13:47:16;5.40;99.90
16513;DHT22;8369;48.030;11.598;2023-04-03T13:49:45;5.50;99.90
16513;DHT22;8369;48.030;11.598;2023-04-03T13:52:42;5.70;99.90
16513;DHT22;8369;48.030;11.598;2023-04-03T13:55:19;5.80;99.90
16513;DHT22;8369;48.030;11.598;2023-04-03T13:57:51;5.80;99.90
16513;DHT22;8369;48.030;11.598;2023-04-03T14:00:28;5.90;99.90
16513;DHT22;8369;48.030;11.598;2023-04-03T14:02:56;6.00;99.90
16513;DHT22;8369;48.030;11.598;2023-04-03T14:05:23;6.20;99.90
16513;DHT22;8369;48.030;11.598;2023-04-03T14:07:54;6.20;99.90
16513;DHT22;8369;48.030;11.598;2023-04-03T14:10:24;6.30;99.90
16513;DHT22;8369;48.030;11.598;2023-04-03T14:12:51;6.50;99.90
16513;DHT22;8369;48.030;11.598;2023-04-03T14:15:22;6.60;99.90
16513;DHT22;8369;48.030;11.598;2023-04-03T14:17:53;6.70;99.90
16513;DHT22;8369;48.030;11.598;2023-04-03T14:20:27;6.70;99.90
16513;DHT22;8369;48.030;11.598;2023-04-03T14:22:55;6.60;99.90
16513;DHT22;8369;48.030;11.598;2023-04-03T14:25:21;6.40;99.90
16513;DHT22;8369;48.030;11.598;2023-04-03T14:27:52;6.30;99.70
16513;DHT22;8369;48.030;11.598;2023-04-03T14:30:26;6.10;97.50
16513;DHT22;8369;48.030;11.598;2023-04-03T14:32:52;5.80;96.70
16513;DHT22;8369;48.030;11.598;2023-04-03T14:35:19;5.60;95.90
16513;DHT22;8369;48.030;11.598;2023-04-03T14:37:46;5.50;96.00
16513;DHT22;8369;48.030;11.598;2023-04-03T14:40:19;5.40;99.00
16513;DHT22;8369;48.030;11.598;2023-04-03T14:42:45;5.40;99.10
16513;DHT22;8369;48.030;11.598;2023-04-03T14:45:14;5.40;99.60
16513;DHT22;8369;48.030;11.598;2023-04-03T14:47:45;5.30;97.00
16513;DHT22;8369;48.030;11.598;2023-04-03T14:50:19;5.30;98.10
16513;DHT22;8369;48.030;11.598;2023-04-03T14:52:47;5.30;96.80
16513;DHT22;8369;48.030;11.598;2023-04-03T14:55:16;5.30;95.90
16513;DHT22;8369;48.030;11.598;2023-04-03T14:57:43;5.30;97.00
16513;DHT22;8369;48.030;11.598;2023-04-03T15:00:15;5.30;97.70
16513;DHT22;8369;48.030;11.598;2023-04-03T15:02:41;5.40;97.50
16513;DHT22;8369;48.030;11.598;2023-04-03T15:05:09;5.40;95.70
16513;DHT22;8369;48.030;11.598;2023-04-03T15:07:38;5.40;97.30
16513;DHT22;8369;48.030;11.598;2023-04-03T15:10:15;5.50;96.40
16513;DHT22;8369;48.030;11.598;2023-04-03T15:12:42;5.50;96.80
16513;DHT22;8369;48.030;11.598;2023-04-03T15:15:09;5.50;94.20
16513;DHT22;8369;48.030;11.598;2023-04-03T15:17:36;5.60;92.80
16513;DHT22;8369;48.030;11.598;2023-04-03T15:20:03;5.50;91.70
16513;DHT22;8369;48.030;11.598;2023-04-03T15:22:34;5.60;94.10
16513;DHT22;8369;48.030;11.598;2023-04-03T15:25:00;5.60;91.90
16513;DHT22;8369;48.030;11.598;2023-04-03T15:27:27;5.60;93.50
16513;DHT22;8369;48.030;11.598;2023-04-03T15:29:53;5.70;93.80
16513;DHT22;8369;48.030;11.598;2023-04-03T15:32:19;5.70;92.00
16513;DHT22;8369;48.030;11.598;2023-04-03T15:34:45;5.70;91.20
16513;DHT22;8369;48.030;11.598;2023-04-03T15:37:11;5.70;93.10
16513;DHT22;8369;48.030;11.598;2023-04-03T15:39:38;5.80;93.30
16513;DHT22;8369;48.030;11.598;2023-04-03T15:42:04;5.80;89.70
16513;DHT22;8369;48.030;11.598;2023-04-03T15:44:33;5.80;87.60
16513;DHT22;8369;48.030;11.598;2023-04-03T15:47:00;5.90;91.70
16513;DHT22;8369;48.030;11.598;2023-04-03T15:49:26;5.90;91.60
16513;DHT22;8369;48.030;11.598;2023-04-03T15:51:52;5.90;86.60
16513;DHT22;8369;48.030;11.598;2023-04-03T15:54:18;5.90;86.20
16513;DHT22;8369;48.030;11.598;2023-04-03T15:56:45;5.90;84.40
16513;DHT22;8369;48.030;11.598;2023-04-03T15:59:13;5.90;97.10
16513;DHT22;8369;48.030;11.598;2023-04-03T16:01:43;5.80;90.80
16513;DHT22;8369;48.030;11.598;2023-04-03T16:04:09;5.70;89.20
16513;DHT22;8369;48.030;11.598;2023-04-03T16:06:36;5.70;88.90
16513;DHT22;8369;48.030;11.598;2023-04-03T16:09:03;5.70;86.60
16513;DHT22;8369;48.030;11.598;2023-04-03T16:11:29;5.60;86.30
16513;DHT22;8369;48.030;11.598;2023-04-03T16:13:55;5.60;84.70
16513;DHT22;8369;48.030;11.598;2023-04-03T16:16:23;5.50;85.70
16513;DHT22;8369;48.030;11.598;2023-04-03T16:18:54;5.50;82.50
16513;DHT22;8369;48.030;11.598;2023-04-03T16:21:20;5.40;80.00
16513;DHT22;8369;48.030;11.598;2023-04-03T16:23:46;5.40;83.00
16513;DHT22;8369;48.030;11.598;2023-04-03T16:26:13;5.40;81.60
16513;DHT22;8369;48.030;11.598;2023-04-03T16:28:39;5.40;82.50
16513;DHT22;8369;48.030;11.598;2023-04-03T16:31:06;5.40;84.40
16513;DHT22;8369;48.030;11.598;2023-04-03T16:33:36;5.40;82.10
16513;DHT22;8369;48.030;11.598;2023-04-03T16:36:04;5.30;81.10
16513;DHT22;8369;48.030;11.598;2023-04-03T16:38:32;5.20;85.70
16513;DHT22;8369;48.030;11.598;2023-04-03T16:40:59;5.20;83.60
16513;DHT22;8369;48.030;11.598;2023-04-03T16:43:39;5.20;84.80
16513;DHT22;8369;48.030;11.598;2023-04-03T16:46:05;5.20;86.90
16513;DHT22;8369;48.030;11.598;2023-04-03T16:48:31;5.20;88.30
16513;DHT22;8369;48.030;11.598;2023-04-03T16:50:59;5.10;85.00
16513;DHT22;8369;48.030;11.598;2023-04-03T16:53:26;5.20;84.10
16513;DHT22;8369;48.030;11.598;2023-04-03T16:55:53;5.10;84.70
16513;DHT22;8369;48.030;11.598;2023-04-03T16:58:19;5.10;85.90
16513;DHT22;8369;48.030;11.598;2023-04-03T17:00:45;5.10;86.30
16513;DHT22;8369;48.030;11.598;2023-04-03T17:03:12;5.10;82.40
16513;DHT22;8369;48.030;11.598;2023-04-03T17:05:38;5.10;82.80
16513;DHT22;8369;48.030;11.598;2023-04-03T17:08:04;5.00;82.70
16513;DHT22;8369;48.030;11.598;2023-04-03T17:10:30;5.00;83.10
16513;DHT22;8369;48.030;11.598;2023-04-03T17:12:56;4.90;83.30
16513;DHT22;8369;48.030;11.598;2023-04-03T17:15:22;4.90;84.70
16513;DHT22;8369;48.030;11.598;2023-04-03T17:17:51;4.80;86.20
16513;DHT22;8369;48.030;11.598;2023-04-03T17:20:17;4.80;86.30
16513;DHT22;8369;48.030;11.598;2023-04-03T17:22:43;4.70;85.90
16513;DHT22;8369;48.030;11.598;2023-04-03T17:25:10;4.70;87.90